Time;durP1;ratioP1;P1;durP2;ratioP2;P2;SDS_P1;SDS_P2;PMS_P1;PMS_P2;Temp;Humidity;BMP_temperature;BMP_pressure;BME280_temperature;BME280_humidity;BME280_pressure;Samples;Min_cycle;Max_cycle;Signal;HPM_P1;HPM_P2
2022/12/18 00:01:27;;;;;;;9.90;8.78;;;;;;;0.00;100.00;99922.53;1773844;80;21460;-81
2022/12/18 00:03:54;;;;;;;11.95;8.03;;;;;;;-0.02;100.00;99950.95;1742661;80;21128;-86
2022/12/18 00:06:21;;;;;;;11.53;8.15;;;;;;;-0.03;100.00;99950.63;1745559;80;20966;-81
2022/12/18 00:08:50;;;;;;;10.90;8.08;;;;;;;-0.05;100.00;99956.08;1747262;81;21013;-85
2022/12/18 00:11:19;;;;;;;11.38;8.70;;;;;;;-0.05;100.00;99979.88;1742562;80;21002;-85
2022/12/18 00:13:46;;;;;;;12.28;9.25;;;;;;;-0.04;100.00;99962.20;1751056;80;21772;-87
2022/12/18 00:16:15;;;;;;;12.75;9.25;;;;;;;-0.01;100.00;99968.48;1766958;80;21145;-83
2022/12/18 00:18:42;;;;;;;13.05;10.05;;;;;;;-0.02;100.00;99971.61;1770996;80;20994;-84
2022/12/18 00:21:10;;;;;;;11.83;9.38;;;;;;;-0.04;100.00;99984.17;1771124;80;21002;-84
2022/12/18 00:23:37;;;;;;;12.53;9.00;;;;;;;-0.06;100.00;99991.47;1771144;81;21045;-85
2022/12/18 00:26:09;;;;;;;13.10;10.38;;;;;;;-0.09;100.00;99966.69;1767341;80;21263;-81
2022/12/18 00:28:36;;;;;;;13.22;9.88;;;;;;;-0.10;100.00;99975.64;1741973;82;21544;-81
2022/12/18 00:31:09;;;;;;;11.25;9.25;;;;;;;-0.12;100.00;99960.44;1742099;82;20963;-79
2022/12/18 00:33:36;;;;;;;10.68;8.88;;;;;;;-0.12;100.00;99957.80;1741993;82;20936;-80
2022/12/18 00:36:09;;;;;;;13.15;9.05;;;;;;;-0.12;100.00;99986.05;1761321;80;21539;-83
2022/12/18 00:38:36;;;;;;;;;;;;;;;-0.15;100.00;99980.63;1744664;82;22512;-82
2022/12/18 00:41:02;;;;;;;14.58;12.03;;;;;;;-0.15;100.00;100003.09;1762573;80;20132;-81
2022/12/18 00:43:29;;;;;;;13.83;10.80;;;;;;;-0.18;100.00;99990.20;1771033;80;21020;-82
2022/12/18 00:45:55;;;;;;;12.50;10.05;;;;;;;-0.15;100.00;99986.41;1742306;80;21095;-81
2022/12/18 00:48:23;;;;;;;12.20;10.18;;;;;;;-0.15;100.00;100014.98;1740772;82;21594;-81
2022/12/18 00:50:50;;;;;;;14.80;11.33;;;;;;;-0.17;100.00;99986.56;1740783;82;21762;-80
2022/12/18 00:53:16;;;;;;;11.85;10.45;;;;;;;-0.19;100.00;99990.39;1741043;81;20968;-85
2022/12/18 00:55:42;;;;;;;13.10;11.68;;;;;;;-0.23;100.00;99999.64;1736013;81;21016;-85
2022/12/18 00:58:10;;;;;;;15.65;11.73;;;;;;;-0.25;100.00;99991.91;1731938;82;20993;-86
2022/12/18 01:00:36;;;;;;;14.55;10.40;;;;;;;-0.23;100.00;99997.82;1741099;80;20904;-85
2022/12/18 01:03:03;;;;;;;14.13;10.90;;;;;;;-0.24;100.00;99994.05;1742618;81;21066;-81
2022/12/18 01:05:30;;;;;;;16.30;11.90;;;;;;;-0.25;100.00;99998.51;1710790;82;20917;-81
2022/12/18 01:07:56;;;;;;;14.95;12.30;;;;;;;-0.28;100.00;100000.16;1730822;81;20943;-81
2022/12/18 01:10:23;;;;;;;17.50;12.15;;;;;;;-0.29;100.00;100008.28;1729013;81;20974;-81
2022/12/18 01:12:50;;;;;;;16.37;12.35;;;;;;;-0.31;100.00;100016.37;1682313;83;20986;-82
2022/12/18 01:15:18;;;;;;;19.02;11.93;;;;;;;-0.33;100.00;100010.42;1739026;81;21117;-82
2022/12/18 01:17:44;;;;;;;16.32;11.68;;;;;;;-0.35;100.00;100023.00;1708174;82;21039;-82
2022/12/18 01:20:11;;;;;;;17.32;11.10;;;;;;;-0.43;100.00;100029.61;1729507;82;21031;-82
2022/12/18 01:22:38;;;;;;;20.10;12.75;;;;;;;-0.48;100.00;100018.77;1730825;81;21099;-83
2022/12/18 01:25:07;;;;;;;19.42;12.40;;;;;;;-0.52;100.00;100051.28;1745015;81;21091;-83
2022/12/18 01:27:34;;;;;;;14.87;10.85;;;;;;;-0.53;100.00;100019.24;1751287;81;21291;-85
2022/12/18 01:30:06;;;;;;;13.98;11.97;;;;;;;-0.56;100.00;100058.39;1753734;81;20963;-84
2022/12/18 01:32:33;;;;;;;18.73;13.72;;;;;;;-0.62;100.00;100041.39;1738389;81;21036;-83
2022/12/18 01:35:00;;;;;;;16.35;13.05;;;;;;;-0.64;100.00;100057.09;1728993;82;21070;-83
2022/12/18 01:37:28;;;;;;;20.15;13.85;;;;;;;-0.64;100.00;100062.38;1730146;82;21011;-83
2022/12/18 01:39:55;;;;;;;18.80;14.45;;;;;;;-0.64;100.00;100073.77;1731149;82;21076;-84
2022/12/18 01:42:25;;;;;;;21.30;15.20;;;;;;;-0.65;100.00;100046.20;1736997;81;21022;-87
2022/12/18 01:45:05;;;;;;;20.82;14.93;;;;;;;-0.67;100.00;100101.03;1746939;81;21015;-84
2022/12/18 01:47:58;;;;;;;20.02;14.30;;;;;;;-0.70;100.00;100073.12;1730767;82;21616;-86
2022/12/18 01:50:39;;;;;;;22.35;15.80;;;;;;;-0.71;100.00;100085.98;1709783;81;21329;-85
2022/12/18 01:53:17;;;;;;;22.05;15.00;;;;;;;-0.76;100.00;100058.43;1701810;84;21176;-89
2022/12/18 01:55:50;;;;;;;20.70;15.10;;;;;;;-0.82;100.00;100050.70;1716201;81;21059;-85
2022/12/18 01:58:17;;;;;;;25.65;16.82;;;;;;;-0.86;100.00;100061.25;1754130;81;20951;-89
2022/12/18 02:00:44;;;;;;;20.35;15.25;;;;;;;-0.91;100.00;100078.09;1759064;81;21038;-89
2022/12/18 02:03:11;;;;;;;28.92;18.07;;;;;;;-0.95;100.00;100062.25;1753328;81;21095;-92
2022/12/18 02:06:06;;;;;;;21.20;17.10;;;;;;;-0.97;100.00;100067.72;1753139;81;21197;-90
2022/12/18 02:09:01;;;;;;;23.32;17.17;;;;;;;-0.96;100.00;100068.55;1729677;81;21056;-86
2022/12/18 02:12:07;;;;;;;19.92;15.18;;;;;;;-0.99;100.00;100088.66;1726286;81;21465;-91
2022/12/18 07:52:01;;;;;;;19.60;14.00;;;;;;;-3.65;94.23;100653.67;1731543;80;35010;-75
2022/12/18 07:54:30;;;;;;;14.37;12.23;;;;;;;-3.66;93.37;100644.12;1691136;84;21018;-74
2022/12/18 07:56:57;;;;;;;17.73;12.30;;;;;;;-3.60;93.24;100658.01;1692284;84;21727;-74
2022/12/18 07:59:25;;;;;;;19.47;13.37;;;;;;;-3.54;93.01;100652.70;1661908;84;21720;-75
2022/12/18 08:01:51;;;;;;;14.00;10.63;;;;;;;-3.49;92.55;100661.49;1691476;83;21135;-75
2022/12/18 08:04:18;;;;;;;17.13;12.30;;;;;;;-3.45;92.36;100658.45;1666271;83;21027;-76
2022/12/18 08:06:46;;;;;;;19.90;11.87;;;;;;;-3.42;92.29;100676.61;1692302;84;21066;-77
2022/12/18 08:09:13;;;;;;;16.17;12.23;;;;;;;-3.39;92.21;100660.55;1665391;85;21076;-75
2022/12/18 08:11:40;;;;;;;18.53;12.97;;;;;;;-3.35;92.05;100698.75;1670867;84;21224;-74
2022/12/18 08:14:06;;;;;;;23.00;13.13;;;;;;;-3.32;91.94;100676.63;1698409;83;20991;-73
2022/12/18 08:16:33;;;;;;;18.77;13.87;;;;;;;-3.30;92.03;100675.50;1697839;83;21081;-75
2022/12/18 08:19:00;;;;;;;17.07;10.80;;;;;;;-3.25;91.41;100681.19;1697379;84;21050;-76
2022/12/18 08:21:29;;;;;;;15.43;12.13;;;;;;;-3.25;91.09;100687.77;1642837;86;21863;-77
2022/12/18 08:24:00;;;;;;;18.03;12.10;;;;;;;-3.22;91.34;100700.66;1645995;86;21032;-75
2022/12/18 08:26:29;;;;;;;16.87;10.80;;;;;;;-3.22;90.31;100711.66;1663833;84;21543;-79
2022/12/18 08:28:58;;;;;;;17.37;12.07;;;;;;;-3.21;90.26;100738.29;1675006;84;20979;-75
2022/12/18 08:31:26;;;;;;;15.33;10.93;;;;;;;-3.22;88.93;100711.19;1679314;84;21111;-74
2022/12/18 08:33:52;;;;;;;16.53;11.03;;;;;;;-3.22;89.06;100705.09;1647232;85;21119;-75
2022/12/18 08:36:20;;;;;;;12.50;9.93;;;;;;;-3.23;89.29;100719.20;1651215;85;21098;-77
2022/12/18 08:38:46;;;;;;;13.77;9.93;;;;;;;-3.27;88.64;100707.30;1645686;85;21478;-75
2022/12/18 08:41:15;;;;;;;14.67;10.63;;;;;;;-3.28;89.00;100706.94;1634497;85;20929;-77
2022/12/18 08:46:29;;;;;;;15.73;11.40;;;;;;;-3.28;88.99;100757.75;1645998;85;21117;-77
2022/12/18 08:48:56;;;;;;;12.80;9.77;;;;;;;-3.32;87.99;100687.14;1660079;85;21099;-77
2022/12/18 08:51:23;;;;;;;15.80;10.83;;;;;;;-3.38;88.03;100704.30;1648792;85;21119;-75
2022/12/18 08:53:49;;;;;;;14.03;10.87;;;;;;;-3.38;88.59;100732.39;1630755;85;21019;-78
2022/12/18 08:56:16;;;;;;;15.07;11.23;;;;;;;-3.38;88.81;100719.23;1647387;85;21088;-78
2022/12/18 08:58:43;;;;;;;14.17;10.20;;;;;;;-3.39;89.12;100710.98;1644993;85;21500;-75
2022/12/18 09:01:12;;;;;;;13.03;9.93;;;;;;;-3.37;89.60;100710.39;1672628;84;20967;-74
2022/12/18 09:03:38;;;;;;;15.53;11.33;;;;;;;-3.37;89.25;100744.09;1683406;84;21101;-76
2022/12/18 09:06:06;;;;;;;14.47;9.70;;;;;;;-3.34;89.18;100750.87;1668656;84;20957;-73
2022/12/18 09:08:36;;;;;;;13.13;9.27;;;;;;;-3.36;88.35;100740.98;1644882;86;21083;-72
2022/12/18 09:11:03;;;;;;;14.40;9.57;;;;;;;-3.36;88.42;100745.77;1644718;85;22446;-76
2022/12/18 09:13:30;;;;;;;15.83;11.37;;;;;;;-3.39;87.59;100765.73;1647892;85;21636;-73
2022/12/18 09:15:58;;;;;;;11.73;9.77;;;;;;;-3.40;87.21;100753.55;1645890;87;21121;-73
2022/12/18 09:18:24;;;;;;;16.50;11.50;;;;;;;-3.42;86.96;100769.13;1645947;85;21050;-74
2022/12/18 09:20:52;;;;;;;13.90;9.27;;;;;;;-3.43;86.96;100777.97;1647936;85;21073;-74
2022/12/18 09:23:19;;;;;;;12.33;8.53;;;;;;;-3.43;87.04;100774.03;1647709;85;21986;-73
2022/12/18 09:25:46;;;;;;;13.10;8.97;;;;;;;-3.44;86.99;100753.47;1660234;85;21011;-72
2022/12/18 09:28:14;;;;;;;21.43;10.63;;;;;;;-3.44;86.76;100769.73;1647553;85;21054;-73
2022/12/18 09:30:43;;;;;;;13.50;10.00;;;;;;;-3.45;86.54;100757.58;1653431;85;21121;-73
2022/12/18 09:33:10;;;;;;;16.03;9.53;;;;;;;-3.47;86.77;100748.97;1645239;85;21007;-77
2022/12/18 09:35:38;;;;;;;11.37;9.03;;;;;;;-3.48;86.80;100756.50;1648945;85;21185;-70
2022/12/18 09:38:05;;;;;;;14.43;9.57;;;;;;;-3.45;87.07;100789.93;1672591;85;21858;-73
2022/12/18 09:40:51;;;;;;;12.97;9.03;;;;;;;-3.43;87.19;100766.14;1648670;85;21034;-73
2022/12/18 09:43:22;;;;;;;13.10;9.67;;;;;;;-3.41;87.14;100760.28;1649563;85;21599;-72
2022/12/18 09:45:57;;;;;;;9.77;8.27;;;;;;;-3.39;87.33;100764.91;1648517;85;21011;-70
2022/12/18 09:48:38;;;;;;;13.70;9.43;;;;;;;-3.39;87.39;100753.91;1628040;85;21144;-73
2022/12/18 09:51:12;;;;;;;13.83;9.67;;;;;;;-3.38;87.12;100767.41;1659217;85;21552;-75
2022/12/18 09:53:39;;;;;;;12.03;9.50;;;;;;;-3.37;87.12;100795.86;1655830;85;21048;-73
2022/12/18 09:56:06;;;;;;;11.33;8.03;;;;;;;-3.38;86.43;100783.67;1648725;85;21538;-74
2022/12/18 09:58:44;;;;;;;13.20;8.63;;;;;;;-3.40;86.37;100792.16;1653369;85;22400;-73
2022/12/18 10:01:17;;;;;;;12.00;8.40;;;;;;;-3.42;85.74;100783.11;1646613;85;21126;-71
2022/12/18 10:03:44;;;;;;;11.97;8.13;;;;;;;-3.41;85.77;100795.78;1635265;85;21064;-72
2022/12/18 10:06:32;;;;;;;12.27;8.40;;;;;;;-3.44;85.38;100814.44;1654120;85;21054;-71
2022/12/18 10:09:07;;;;;;;10.07;8.60;;;;;;;-3.45;85.33;100804.91;1598324;85;21126;-72
2022/12/18 10:11:49;;;;;;;10.40;8.43;;;;;;;-3.49;85.16;100808.73;1653803;85;21028;-73
2022/12/18 10:14:30;;;;;;;11.37;8.23;;;;;;;-3.49;85.29;100778.50;1662174;85;22276;-72
2022/12/18 10:17:30;;;;;;;12.00;7.80;;;;;;;-3.48;85.42;100811.72;1642651;86;21066;-72
2022/12/18 10:20:05;;;;;;;13.07;9.10;;;;;;;-3.48;85.44;100811.24;1583958;89;21159;-72
2022/12/18 10:22:52;;;;;;;12.40;7.67;;;;;;;-3.49;85.19;100817.94;1616551;85;20975;-72
2022/12/18 10:25:38;;;;;;;12.60;8.80;;;;;;;-3.51;85.29;100793.11;1661845;86;21074;-73
2022/12/18 10:28:12;;;;;;;11.83;8.57;;;;;;;-3.53;85.38;100810.33;1644036;86;21288;-73
2022/12/18 10:30:40;;;;;;;12.07;8.63;;;;;;;-3.52;85.80;100813.31;1637184;87;21010;-72
2022/12/18 14:43:52;;;;;;;10.57;8.03;;;;;;;-4.13;100.00;101172.31;1773590;79;35429;-77
2022/12/18 14:46:35;;;;;;;8.47;7.47;;;;;;;-4.12;100.00;101202.02;1738969;81;21533;-79
2022/12/18 14:49:20;;;;;;;9.43;7.20;;;;;;;-4.08;100.00;101193.80;1768469;81;20923;-80
2022/12/18 14:51:55;;;;;;;8.35;7.08;;;;;;;-4.04;100.00;101258.30;1748998;81;20985;-79
2022/12/18 14:54:23;;;;;;;9.13;6.90;;;;;;;-4.02;100.00;101231.88;1765485;81;21029;-77
2022/12/18 14:56:55;;;;;;;11.17;8.40;;;;;;;-4.01;99.75;101205.97;1765675;81;21534;-78
2022/12/18 14:59:25;;;;;;;8.50;7.60;;;;;;;-4.01;99.54;101213.37;1766186;81;21091;-82
2022/12/18 15:02:16;;;;;;;8.33;6.90;;;;;;;-4.00;99.51;101208.48;1765333;81;21360;-78
2022/12/18 15:04:44;;;;;;;;;;;;;;;-4.02;99.39;101245.86;1767879;81;21055;-79
2022/12/18 15:07:18;;;;;;;11.13;8.33;;;;;;;-4.03;99.40;101228.92;1731358;82;20123;-78
2022/12/18 15:10:15;;;;;;;8.37;6.83;;;;;;;-4.03;99.43;101221.03;1705526;82;21055;-77
2022/12/18 15:13:02;;;;;;;9.00;7.33;;;;;;;-4.01;99.59;101219.95;1682547;82;20974;-80
2022/12/18 15:15:43;;;;;;;10.43;8.23;;;;;;;-4.00;99.24;101246.59;1731270;82;21051;-79
2022/12/18 15:18:16;;;;;;;9.67;8.27;;;;;;;-4.01;99.08;101233.08;1731344;82;21049;-82
2022/12/18 15:20:51;;;;;;;;;;;;;;;-4.01;98.94;101239.66;1734282;82;20978;-78
2022/12/18 15:23:29;;;;;;;12.80;8.33;;;;;;;-4.01;98.71;101240.13;1731764;81;20148;-78
2022/12/18 15:26:03;;;;;;;12.43;8.10;;;;;;;-4.04;98.45;101232.49;1720218;82;21567;-79
2022/12/18 15:28:40;;;;;;;13.47;8.83;;;;;;;-4.07;98.26;101239.27;1750172;82;21162;-80
2022/12/18 15:31:16;;;;;;;13.17;9.47;;;;;;;-4.09;98.31;101234.16;1751486;80;21043;-81
2022/12/18 15:33:54;;;;;;;11.70;8.17;;;;;;;-4.10;98.31;101257.91;1780745;80;20951;-79
2022/12/18 15:36:23;;;;;;;9.87;8.37;;;;;;;-4.12;98.21;101244.89;1775200;80;20968;-78
2022/12/18 15:38:52;;;;;;;11.73;8.33;;;;;;;-4.10;98.40;101256.12;1781201;80;21002;-79
2022/12/18 15:41:21;;;;;;;9.33;7.37;;;;;;;-4.08;98.41;101267.84;1754960;80;21156;-81
2022/12/18 15:43:49;;;;;;;10.97;8.63;;;;;;;-4.07;98.09;101291.83;1779735;80;21042;-82
2022/12/18 15:46:18;;;;;;;9.97;8.07;;;;;;;-4.11;97.67;101304.36;1780755;80;20920;-80
2022/12/18 15:48:47;;;;;;;11.40;8.00;;;;;;;-4.11;97.27;101294.33;1780856;80;21265;-82
2022/12/18 15:51:29;;;;;;;9.60;7.43;;;;;;;-4.14;97.15;101294.09;1780634;80;21034;-82
2022/12/18 15:53:58;;;;;;;12.30;9.10;;;;;;;-4.13;97.26;101314.17;1778029;80;21965;-80
2022/12/18 16:11:02;;;;;;;9.20;8.07;;;;;;;-3.90;95.30;101332.13;1888563;76;22677;-78
2022/12/18 16:13:29;;;;;;;9.33;7.43;;;;;;;-3.96;94.65;101340.47;1859601;77;20978;-77
2022/12/18 16:15:56;;;;;;;9.90;7.97;;;;;;;-3.97;94.62;101341.41;1859556;77;21154;-78
2022/12/18 16:18:23;;;;;;;9.60;7.03;;;;;;;-3.98;94.48;101371.30;1859715;77;20845;-77
2022/12/18 16:20:49;;;;;;;9.23;7.80;;;;;;;-4.02;94.38;101348.80;1859455;77;20959;-80
2022/12/18 16:23:16;;;;;;;9.27;7.33;;;;;;;-4.05;94.51;101377.95;1859798;77;20955;-79
2022/12/18 16:25:43;;;;;;;8.23;6.90;;;;;;;-4.08;94.53;101359.80;1859646;77;20869;-80
2022/12/18 16:28:09;;;;;;;9.60;8.27;;;;;;;-4.12;94.45;101376.24;1859656;77;21082;-78
2022/12/18 16:30:36;;;;;;;8.33;7.17;;;;;;;-4.15;94.41;101380.89;1859852;77;20971;-80
2022/12/18 16:33:02;;;;;;;12.93;8.03;;;;;;;-4.19;94.34;101367.62;1826660;77;20991;-79
2022/12/18 16:35:30;;;;;;;9.87;6.90;;;;;;;-4.24;94.39;101361.88;1859612;77;20947;-82
2022/12/18 16:37:58;;;;;;;9.87;6.87;;;;;;;-4.27;94.63;101391.85;1859400;77;21487;-77
2022/12/18 16:40:25;;;;;;;11.43;7.43;;;;;;;-4.31;94.62;101388.22;1845400;77;21123;-79
2022/12/18 16:42:52;;;;;;;8.40;6.73;;;;;;;-4.35;94.68;101389.40;1859456;77;21019;-81
2022/12/18 16:45:20;;;;;;;8.40;6.77;;;;;;;-4.37;94.83;101397.41;1857217;77;20932;-77
2022/12/18 16:47:46;;;;;;;13.80;7.20;;;;;;;-4.41;94.95;101388.89;1858245;77;20979;-78
2022/12/18 16:50:14;;;;;;;8.73;7.83;;;;;;;-4.42;95.07;101398.22;1835420;77;22011;-72
2022/12/18 16:52:41;;;;;;;12.07;7.47;;;;;;;-4.42;95.19;101403.47;1799884;77;21183;-75
2022/12/18 16:55:08;;;;;;;9.50;6.70;;;;;;;-4.42;95.32;101387.25;1834546;77;21011;-82
2022/12/18 16:57:34;;;;;;;10.77;7.57;;;;;;;-4.42;95.43;101410.88;1848801;76;20967;-74
2022/12/18 17:00:02;;;;;;;9.87;7.67;;;;;;;-4.47;95.36;101421.34;1823716;77;21623;-86
2022/12/18 17:02:29;;;;;;;10.07;8.83;;;;;;;-4.51;95.55;101423.33;1801512;78;21023;-74
2022/12/18 17:04:56;;;;;;;12.80;9.47;;;;;;;-4.52;95.68;101433.97;1801958;77;22150;-75
2022/12/18 17:07:24;;;;;;;10.27;7.70;;;;;;;-4.56;95.82;101421.55;1855512;77;21539;-75
2022/12/18 17:09:50;;;;;;;8.53;6.80;;;;;;;-4.54;96.04;101456.38;1798485;78;20977;-76
2022/12/18 17:12:21;;;;;;;8.37;7.07;;;;;;;-4.56;96.12;101428.58;1826495;77;21059;-81
2022/12/18 17:14:47;;;;;;;11.03;7.67;;;;;;;-4.57;96.16;101447.89;1780486;80;20992;-84
2022/12/18 17:17:15;;;;;;;12.27;7.90;;;;;;;-4.59;96.41;101429.62;1706579;81;21317;-85
2022/12/18 17:19:42;;;;;;;9.10;6.73;;;;;;;-4.58;96.59;101469.84;1759624;81;20979;-73
2022/12/18 17:22:09;;;;;;;9.97;7.63;;;;;;;-4.60;96.70;101454.66;1758637;81;20972;-73
2022/12/18 17:24:36;;;;;;;9.90;6.67;;;;;;;-4.62;96.82;101475.79;1765645;81;21053;-82
2022/12/18 17:27:04;;;;;;;11.93;7.57;;;;;;;-4.64;97.00;101463.70;1765999;81;21084;-82
2022/12/18 17:29:33;;;;;;;10.33;7.43;;;;;;;-4.63;97.24;101461.45;1734206;79;21028;-84
2022/12/18 17:31:59;;;;;;;9.93;7.60;;;;;;;-4.67;97.37;101474.43;1743123;79;21086;-87
2022/12/18 17:34:25;;;;;;;8.57;6.80;;;;;;;-4.65;97.47;101452.86;1678777;81;20996;-90
2022/12/18 17:36:54;;;;;;;10.17;6.47;;;;;;;-4.65;97.67;101476.48;1741300;81;20956;-91
2022/12/18 17:39:24;;;;;;;11.00;8.00;;;;;;;-4.64;97.74;101467.64;1752293;80;21034;-91
2022/12/18 17:41:56;;;;;;;;;;;;;;;-4.64;97.81;101472.89;1776322;79;22306;-94
2022/12/18 17:44:24;;;;;;;10.07;7.27;;;;;;;-4.62;97.98;101479.73;1764434;79;20166;-89
2022/12/18 17:46:55;;;;;;;9.67;7.20;;;;;;;-4.62;98.02;101481.04;1777389;79;20970;-86
2022/12/18 17:49:22;;;;;;;11.03;7.83;;;;;;;-4.60;98.06;101504.53;1756619;80;21025;-85
2022/12/18 17:51:50;;;;;;;9.47;6.73;;;;;;;-4.62;97.95;101478.41;1754462;80;21053;-94
2022/12/18 17:54:20;;;;;;;10.47;7.53;;;;;;;-4.64;98.05;101481.61;1782778;80;21126;-89
2022/12/18 17:56:51;;;;;;;9.63;6.37;;;;;;;-4.66;98.19;101491.87;1757456;79;21052;-91
2022/12/18 17:59:21;;;;;;;10.37;7.23;;;;;;;-4.68;98.26;101488.02;1757093;80;21049;-83
2022/12/18 18:01:48;;;;;;;11.03;7.80;;;;;;;-4.68;98.29;101490.65;1782431;80;21561;-74
2022/12/18 18:04:15;;;;;;;12.13;9.77;;;;;;;-4.68;98.28;101507.72;1778941;80;21704;-84
2022/12/18 18:06:51;;;;;;;11.73;9.03;;;;;;;-4.71;98.26;101505.31;1781865;79;21158;-89
2022/12/18 18:09:23;;;;;;;9.83;7.80;;;;;;;-4.71;98.30;101507.09;1740135;80;21114;-87
2022/12/18 18:14:42;;;;;;;9.43;7.17;;;;;;;-4.74;98.47;101536.16;1744983;80;21015;-89
2022/12/18 18:17:12;;;;;;;11.83;9.83;;;;;;;-4.78;98.43;101560.47;1728645;81;21539;-88
2022/12/18 18:19:43;;;;;;;11.17;9.13;;;;;;;-4.79;98.40;101527.30;1752508;80;21979;-77
2022/12/18 18:22:11;;;;;;;11.73;7.80;;;;;;;-4.80;98.59;101562.38;1737388;81;21570;-83
2022/12/18 18:24:38;;;;;;;8.00;6.70;;;;;;;-4.80;98.55;101556.30;1702823;80;22537;-92
2022/12/18 18:27:10;;;;;;;9.03;8.08;;;;;;;-4.79;98.66;101547.45;1704052;83;20954;-86
2022/12/18 18:29:38;;;;;;;10.93;8.63;;;;;;;-4.76;98.69;101545.95;1761553;80;21023;-82
2022/12/18 18:32:06;;;;;;;8.80;6.80;;;;;;;-4.71;98.78;101544.69;1726618;81;21127;-78
2022/12/18 18:34:33;;;;;;;8.70;7.47;;;;;;;-4.67;98.68;101568.92;1787344;80;20971;-90
2022/12/18 18:37:01;;;;;;;9.67;6.87;;;;;;;-4.67;98.42;101556.65;1790281;80;20967;-84
2022/12/18 18:39:28;;;;;;;11.77;9.03;;;;;;;-4.66;98.31;101556.17;1752991;80;21027;-83
2022/12/18 18:41:55;;;;;;;8.63;7.57;;;;;;;-4.67;98.17;101589.92;1759409;81;21562;-83
2022/12/18 18:44:23;;;;;;;9.37;7.13;;;;;;;-4.69;98.16;101569.49;1755753;80;21468;-85
2022/12/18 18:46:55;;;;;;;11.20;8.53;;;;;;;-4.73;98.09;101573.28;1726094;81;20932;-81
2022/12/18 20:45:37;;;;;;;16.30;10.37;;;;;;;-5.60;100.00;101777.02;1691938;81;59365;-80
2022/12/18 20:48:05;;;;;;;14.30;10.13;;;;;;;-5.57;100.00;101775.53;1706999;82;21035;-80
2022/12/18 20:50:31;;;;;;;13.37;9.33;;;;;;;-5.49;100.00;101778.52;1689887;84;21156;-80
2022/12/18 20:52:58;;;;;;;9.33;7.73;;;;;;;-5.44;100.00;101779.07;1733374;82;21027;-81
2022/12/18 20:55:25;;;;;;;11.60;8.57;;;;;;;-5.43;100.00;101778.14;1720627;82;20926;-81
2022/12/18 20:57:53;;;;;;;15.70;9.37;;;;;;;-5.36;100.00;101795.16;1778435;80;20984;-81
2022/12/18 21:00:22;;;;;;;12.37;8.30;;;;;;;-5.30;100.00;101803.11;1767266;80;21079;-78
2022/12/18 21:02:48;;;;;;;10.73;8.27;;;;;;;-5.28;100.00;101818.30;1756945;80;21288;-81
2022/12/18 21:05:16;;;;;;;11.03;8.97;;;;;;;-5.27;100.00;101798.97;1754524;80;21546;-79
2022/12/18 21:07:43;;;;;;;13.50;8.80;;;;;;;-5.29;99.74;101797.78;1734775;81;20968;-81
2022/12/18 21:10:12;;;;;;;14.27;10.27;;;;;;;-5.29;99.64;101795.63;1734051;82;21619;-78
2022/12/18 21:12:48;;;;;;;12.43;8.50;;;;;;;-5.25;99.74;101794.95;1718039;82;21141;-88
2022/12/18 21:15:11;;;;;;;13.07;9.00;;;;;;;-5.22;99.57;101806.55;1734745;81;21144;-78
2022/12/18 21:17:39;;;;;;;9.33;7.40;;;;;;;-5.20;98.88;101811.24;1727464;82;21058;-80
2022/12/18 21:20:08;;;;;;;19.07;8.50;;;;;;;-5.22;98.29;101811.80;1731471;82;21037;-80
2022/12/18 21:22:35;;;;;;;10.40;7.30;;;;;;;-5.25;98.01;101811.53;1734782;82;21103;-87
2022/12/18 21:25:03;;;;;;;11.63;7.93;;;;;;;-5.29;97.47;101810.89;1735461;82;20999;-86
2022/12/18 21:27:30;;;;;;;13.97;7.67;;;;;;;-5.30;97.11;101816.22;1722887;82;21173;-85
2022/12/18 21:29:57;;;;;;;10.67;7.43;;;;;;;-5.30;97.01;101818.84;1716088;82;21020;-86
2022/12/18 21:32:28;;;;;;;10.87;9.10;;;;;;;-5.29;96.92;101813.98;1731723;82;21037;-84
2022/12/18 21:34:55;;;;;;;8.57;7.47;;;;;;;-5.30;96.60;101817.53;1708634;83;21593;-82
2022/12/18 21:37:21;;;;;;;9.50;7.17;;;;;;;-5.28;96.66;101819.61;1725121;82;21069;-88
2022/12/18 21:39:50;;;;;;;9.23;7.40;;;;;;;-5.28;96.25;101841.89;1733789;82;21215;-87
2022/12/18 21:45:04;;;;;;;9.00;8.10;;;;;;;-5.39;95.58;101837.31;1680797;84;20978;-84
2022/12/18 21:47:31;;;;;;;10.03;7.90;;;;;;;-5.44;95.38;101838.06;1676162;84;21053;-87
2022/12/18 21:49:59;;;;;;;11.70;9.27;;;;;;;-5.50;95.18;101838.89;1676605;84;21099;-86
2022/12/18 21:52:26;;;;;;;10.90;7.53;;;;;;;-5.53;95.14;101837.78;1727913;83;21135;-85
2022/12/18 21:54:52;;;;;;;10.13;7.60;;;;;;;-5.53;95.18;101829.45;1731203;83;21027;-82
2022/12/18 21:57:21;;;;;;;10.60;8.37;;;;;;;-5.55;94.93;101827.38;1724057;82;20982;-88
2022/12/18 21:59:49;;;;;;;10.47;7.33;;;;;;;-5.58;94.55;101823.65;1729616;82;20932;-85
2022/12/18 22:02:18;;;;;;;10.83;8.33;;;;;;;-5.62;93.76;101846.21;1730206;83;21562;-73
2022/12/18 22:04:45;;;;;;;9.33;7.80;;;;;;;-5.67;93.52;101842.56;1728828;82;21370;-76
2022/12/18 22:07:15;;;;;;;11.73;7.90;;;;;;;-5.74;92.96;101852.56;1728765;82;21030;-78
2022/12/18 22:09:41;;;;;;;15.07;10.53;;;;;;;-5.82;92.54;101844.79;1729111;82;20966;-77
2022/12/18 22:12:09;;;;;;;11.47;9.77;;;;;;;-5.88;92.70;101846.49;1728542;82;20974;-83
2022/12/18 22:14:38;;;;;;;12.43;8.37;;;;;;;-5.90;92.81;101867.53;1708918;83;21553;-79
2022/12/18 22:17:04;;;;;;;11.47;8.60;;;;;;;-5.97;92.00;101864.91;1729844;82;22098;-80
2022/12/18 22:19:30;;;;;;;12.63;9.03;;;;;;;-6.02;91.90;101885.30;1724131;81;21075;-81
2022/12/18 22:21:57;;;;;;;15.27;9.07;;;;;;;-6.10;91.79;101863.95;1718454;83;21081;-84
2022/12/18 22:24:25;;;;;;;10.83;7.93;;;;;;;-6.14;91.84;101865.08;1729497;83;21551;-81
2022/12/18 22:26:53;;;;;;;10.30;8.03;;;;;;;-6.17;91.62;101891.42;1729734;82;21038;-76
2022/12/18 22:32:11;;;;;;;14.60;9.53;;;;;;;-6.24;91.64;101896.65;1729738;83;21090;-76
2022/12/18 22:34:38;;;;;;;13.70;8.50;;;;;;;-6.30;91.27;101895.69;1729882;83;20994;-79
2022/12/18 22:37:05;;;;;;;12.53;8.83;;;;;;;-6.37;91.25;101871.61;1709553;83;21017;-83
2022/12/18 22:39:32;;;;;;;10.90;9.33;;;;;;;-6.41;91.22;101877.11;1729154;82;21015;-75
2022/12/18 22:41:59;;;;;;;15.70;9.93;;;;;;;-6.45;91.42;101883.46;1723362;82;21082;-78
2022/12/18 22:44:25;;;;;;;12.37;9.27;;;;;;;-6.47;91.58;101886.16;1727505;82;21025;-87
2022/12/18 22:46:54;;;;;;;14.20;8.97;;;;;;;-6.49;91.81;101898.50;1706957;83;21030;-83
2022/12/18 22:49:22;;;;;;;12.27;8.43;;;;;;;-6.49;91.87;101897.66;1719307;82;21032;-87
2022/12/18 22:51:49;;;;;;;11.13;8.00;;;;;;;-6.51;91.96;101906.05;1694741;83;21094;-86
2022/12/18 22:54:16;;;;;;;10.97;9.27;;;;;;;-6.53;92.12;101898.77;1687380;85;21848;-85
2022/12/18 22:56:42;;;;;;;11.00;7.80;;;;;;;-6.53;92.24;101907.46;1687109;84;21003;-82
2022/12/18 22:59:19;;;;;;;10.83;8.40;;;;;;;-6.52;92.26;101905.20;1710536;83;20935;-83
2022/12/18 23:01:46;;;;;;;8.90;6.90;;;;;;;-6.52;92.13;101912.23;1690247;83;20971;-81
2022/12/18 23:04:15;;;;;;;9.73;8.23;;;;;;;-6.58;92.09;101914.73;1707314;83;20973;-89
2022/12/18 23:06:43;;;;;;;11.00;8.90;;;;;;;-6.62;92.13;101906.17;1721489;83;21048;-85
2022/12/18 23:09:16;;;;;;;14.90;8.87;;;;;;;-6.62;92.35;101906.67;1718826;83;21043;-86
2022/12/18 23:11:44;;;;;;;14.00;9.20;;;;;;;-6.65;92.39;101900.28;1676015;84;21055;-86
2022/12/18 23:14:11;;;;;;;11.80;8.03;;;;;;;-6.69;92.54;101905.31;1676266;84;21036;-86
2022/12/18 23:16:38;;;;;;;16.40;9.87;;;;;;;-6.69;92.74;101902.69;1676577;85;21341;-82
2022/12/18 23:19:04;;;;;;;11.97;8.40;;;;;;;-6.76;92.81;101913.95;1720471;83;21117;-83
2022/12/18 23:21:31;;;;;;;16.67;9.07;;;;;;;-6.77;92.96;101929.75;1681372;84;21819;-83
2022/12/18 23:23:57;;;;;;;12.13;8.97;;;;;;;-6.76;93.10;101908.72;1687371;85;21045;-84
2022/12/18 23:26:25;;;;;;;13.20;9.20;;;;;;;-6.78;93.12;101921.52;1621512;88;21539;-81
2022/12/18 23:28:52;;;;;;;13.57;8.47;;;;;;;-6.81;93.19;101904.20;1689826;83;21042;-80
2022/12/18 23:31:22;;;;;;;12.77;8.70;;;;;;;-6.82;93.29;101916.92;1690325;83;21161;-82
2022/12/18 23:33:49;;;;;;;13.97;8.40;;;;;;;-6.83;93.39;101917.84;1686759;83;21039;-86
2022/12/18 23:36:17;;;;;;;10.23;7.27;;;;;;;-6.85;93.37;101918.37;1621692;87;20928;-84
2022/12/18 23:38:52;;;;;;;11.43;7.93;;;;;;;-6.85;93.52;101921.45;1700046;83;21003;-83